createdAt,value
2018-06-22T00:01:35.879Z,59.33
2018-06-22T00:04:03.972Z,58.33
2018-06-22T00:06:32.189Z,60.64
2018-06-22T00:09:01.308Z,60.00
2018-06-22T00:11:29.480Z,60.31
2018-06-22T00:13:57.832Z,62.70
2018-06-22T00:16:25.917Z,61.84
2018-06-22T00:18:54.033Z,61.14
2018-06-22T00:21:22.232Z,62.31
2018-06-22T00:23:50.313Z,64.50
2018-06-22T00:26:18.525Z,64.85
2018-06-22T00:28:46.687Z,63.78
2018-06-22T00:31:14.864Z,63.26
2018-06-22T00:33:42.932Z,64.84
2018-06-22T00:36:11.011Z,64.63
2018-06-22T00:38:39.136Z,63.25
2018-06-22T00:41:07.236Z,62.54
2018-06-22T00:43:35.752Z,62.33
2018-06-22T00:46:03.858Z,63.13
2018-06-22T00:48:32.243Z,63.25
2018-06-22T00:51:00.347Z,63.43
2018-06-22T00:53:39.811Z,64.52
2018-06-22T00:56:07.921Z,64.97
2018-06-22T00:58:36.006Z,64.37
2018-06-22T01:01:04.169Z,66.66
2018-06-22T01:03:32.790Z,65.42
2018-06-22T01:06:02.305Z,66.16
2018-06-22T01:08:30.741Z,65.09
2018-06-22T01:10:59.212Z,65.69
2018-06-22T01:13:27.435Z,67.29
2018-06-22T01:15:55.627Z,65.45
2018-06-22T01:18:23.740Z,65.79
2018-06-22T01:20:51.974Z,65.37
2018-06-22T01:23:21.005Z,65.60
2018-06-22T01:25:49.123Z,66.44
2018-06-22T01:28:17.241Z,66.42
2018-06-22T01:30:45.440Z,66.84
2018-06-22T01:33:13.639Z,67.07
2018-06-22T01:35:41.777Z,66.89
2018-06-22T01:38:10.024Z,67.75
2018-06-22T01:40:38.169Z,67.31
2018-06-22T01:43:08.260Z,68.17
2018-06-22T01:45:36.420Z,68.00
2018-06-22T01:48:04.544Z,67.55
2018-06-22T01:50:32.764Z,67.98
2018-06-22T01:53:01.046Z,67.99
2018-06-22T01:55:29.427Z,67.29
2018-06-22T01:57:57.660Z,68.73
2018-06-22T02:00:25.869Z,68.93
2018-06-22T02:02:53.944Z,69.04
2018-06-22T02:05:22.068Z,68.14
2018-06-22T02:07:50.219Z,68.61
2018-06-22T02:10:18.380Z,69.30
2018-06-22T02:12:47.109Z,70.48
2018-06-22T02:15:15.258Z,70.94
2018-06-22T02:17:43.462Z,71.07
2018-06-22T02:20:12.006Z,71.92
2018-06-22T02:22:40.228Z,70.20
2018-06-22T02:25:08.428Z,69.99
2018-06-22T02:27:36.553Z,70.32
2018-06-22T02:30:05.211Z,70.29
2018-06-22T02:32:33.380Z,70.04
2018-06-22T02:35:02.531Z,70.49
2018-06-22T02:37:31.560Z,70.25
2018-06-22T02:40:00.756Z,70.64
2018-06-22T02:42:28.852Z,71.06
2018-06-22T02:44:56.955Z,70.87
2018-06-22T02:47:25.080Z,71.40
2018-06-22T02:49:53.185Z,71.62
2018-06-22T02:52:21.319Z,71.91
2018-06-22T02:54:49.432Z,73.31
2018-06-22T02:57:17.552Z,73.58
2018-06-22T02:59:46.373Z,73.17
2018-06-22T03:02:14.548Z,73.08
2018-06-22T03:04:42.687Z,72.82
2018-06-22T03:07:10.857Z,74.53
2018-06-22T03:09:39.047Z,73.24
2018-06-22T03:12:07.268Z,74.12
2018-06-22T03:14:36.348Z,73.62
2018-06-22T03:17:04.451Z,73.47
2018-06-22T03:19:32.780Z,73.10
2018-06-22T03:22:01.129Z,72.49
2018-06-22T03:24:29.256Z,72.96
2018-06-22T03:26:57.511Z,73.17
2018-06-22T03:29:25.728Z,74.33
2018-06-22T03:31:54.053Z,74.24
2018-06-22T03:34:22.277Z,74.37
2018-06-22T03:36:50.417Z,73.13
2018-06-22T03:39:19.409Z,73.87
2018-06-22T03:41:47.544Z,74.01
2018-06-22T03:44:15.944Z,73.89
2018-06-22T03:46:44.127Z,73.80
2018-06-22T03:49:12.272Z,73.49
2018-06-22T03:54:33.468Z,73.86
2018-06-22T03:57:01.702Z,73.79
2018-06-22T03:59:29.915Z,74.23
2018-06-22T04:01:58.127Z,73.51
2018-06-22T04:04:26.388Z,74.22
2018-06-22T04:06:54.740Z,73.88
2018-06-22T04:09:22.923Z,73.64
2018-06-22T04:11:51.207Z,73.80
2018-06-22T04:14:19.403Z,74.06
2018-06-22T04:16:47.689Z,73.31
2018-06-22T04:19:16.457Z,73.18
2018-06-22T04:21:44.580Z,71.90
2018-06-22T04:24:15.777Z,65.80
2018-06-22T04:26:44.117Z,59.67
2018-06-22T04:29:14.172Z,57.00
2018-06-22T04:31:42.392Z,55.52
2018-06-22T04:34:11.083Z,53.22
2018-06-22T04:36:39.334Z,53.40
2018-06-22T04:39:09.100Z,51.61
2018-06-22T04:41:37.212Z,53.30
2018-06-22T04:44:05.535Z,51.62
2018-06-22T04:46:33.868Z,50.83
2018-06-22T04:49:02.093Z,49.26
2018-06-22T04:51:31.247Z,46.47
2018-06-22T04:53:59.606Z,46.16
2018-06-22T04:56:28.385Z,44.24
2018-06-22T04:58:57.096Z,44.75
2018-06-22T05:01:25.317Z,44.04
2018-06-22T05:03:53.425Z,41.43
2018-06-22T05:06:22.200Z,42.11
2018-06-22T05:08:50.427Z,42.55
2018-06-22T05:11:18.580Z,42.19
2018-06-22T05:13:47.377Z,42.59
2018-06-22T05:16:15.607Z,41.76
2018-06-22T05:18:44.008Z,41.31
2018-06-22T05:21:12.089Z,41.48
2018-06-22T05:23:40.790Z,40.43
2018-06-22T05:26:08.931Z,40.63
2018-06-22T05:28:37.132Z,39.38
2018-06-22T05:31:05.248Z,42.55
2018-06-22T05:33:33.416Z,40.11
2018-06-22T05:36:01.639Z,39.03
2018-06-22T05:38:30.064Z,38.88
2018-06-22T05:40:58.185Z,39.13
2018-06-22T05:43:26.495Z,36.66
2018-06-22T05:45:54.636Z,37.19
2018-06-22T05:48:22.924Z,36.34
2018-06-22T05:50:51.246Z,35.71
2018-06-22T05:53:19.242Z,38.02
2018-06-22T05:55:47.485Z,37.81
2018-06-22T05:58:15.672Z,37.68
2018-06-22T06:00:43.954Z,35.78
2018-06-22T06:03:12.202Z,36.31
2018-06-22T06:05:41.097Z,37.68
2018-06-22T06:08:09.243Z,37.21
2018-06-22T06:10:37.403Z,37.99
2018-06-22T06:13:06.521Z,38.33
2018-06-22T06:15:35.008Z,36.45
2018-06-22T06:18:03.160Z,36.98
2018-06-22T06:20:31.395Z,36.40
2018-06-22T06:22:59.492Z,34.61
2018-06-22T06:25:28.241Z,34.29
2018-06-22T06:27:56.336Z,37.14
2018-06-22T06:30:24.605Z,36.37
2018-06-22T06:32:52.785Z,38.31
2018-06-22T06:35:21.074Z,38.52
2018-06-22T06:37:49.936Z,39.05
2018-06-22T06:40:18.117Z,35.76
2018-06-22T06:42:46.856Z,37.27
2018-06-22T06:45:15.032Z,40.11
2018-06-22T06:47:43.727Z,40.47
2018-06-22T06:50:11.890Z,44.67
2018-06-22T06:52:40.094Z,46.59
2018-06-22T06:55:08.274Z,50.54
2018-06-22T06:57:36.455Z,49.00
2018-06-22T07:00:04.656Z,50.60
2018-06-22T07:02:32.781Z,52.04
2018-06-22T07:05:00.826Z,49.98
2018-06-22T07:07:28.898Z,50.14
2018-06-22T07:09:57.072Z,49.97
2018-06-22T07:12:25.213Z,49.87
2018-06-22T07:14:53.368Z,50.80
2018-06-22T07:17:21.522Z,50.23
2018-06-22T07:19:50.411Z,48.96
2018-06-22T07:22:18.491Z,51.19
2018-06-22T07:24:46.655Z,50.90
2018-06-22T07:27:15.243Z,50.17
2018-06-22T07:29:43.321Z,50.08
2018-06-22T07:32:11.681Z,50.19
2018-06-22T07:34:39.763Z,51.61
2018-06-22T07:37:07.972Z,52.29
2018-06-22T07:39:36.276Z,51.67
2018-06-22T07:42:04.400Z,51.87
2018-06-22T07:44:32.560Z,52.06
2018-06-22T07:47:00.637Z,50.16
2018-06-22T07:49:28.716Z,49.91
2018-06-22T07:51:56.893Z,49.16
2018-06-22T07:54:24.996Z,50.17
2018-06-22T07:56:53.413Z,49.88
2018-06-22T07:59:21.502Z,48.14
2018-06-22T08:01:49.616Z,50.80
2018-06-22T08:04:17.832Z,48.33
2018-06-22T08:06:46.967Z,47.94
2018-06-22T08:09:15.225Z,48.04
2018-06-22T08:11:43.330Z,49.57
2018-06-22T08:14:11.384Z,49.29
2018-06-22T08:16:39.503Z,47.54
2018-06-22T08:19:07.664Z,45.48
2018-06-22T08:21:36.941Z,45.52
2018-06-22T08:24:05.092Z,45.18
2018-06-22T08:26:33.341Z,44.90
2018-06-22T08:29:01.407Z,44.37
2018-06-22T08:31:29.768Z,45.26
2018-06-22T08:33:57.836Z,46.40
2018-06-22T08:36:26.001Z,44.74
2018-06-22T08:38:54.159Z,45.80
2018-06-22T08:41:22.246Z,46.06
2018-06-22T08:43:51.244Z,45.05
2018-06-22T08:46:20.195Z,44.61
2018-06-22T08:48:48.610Z,46.88
2018-06-22T08:51:16.785Z,47.59
2018-06-22T08:53:45.062Z,46.81
2018-06-22T08:56:13.139Z,45.57
2018-06-22T08:58:41.215Z,44.86
2018-06-22T09:01:09.285Z,46.31
2018-06-22T09:03:37.520Z,46.53
2018-06-22T09:06:05.739Z,47.17
2018-06-22T09:08:33.984Z,46.43
2018-06-22T09:11:02.324Z,47.15
2018-06-22T09:13:30.447Z,47.44
2018-06-22T09:15:58.546Z,46.33
2018-06-22T09:18:26.635Z,46.11
2018-06-22T09:20:54.700Z,46.85
2018-06-22T09:23:22.991Z,47.45
2018-06-22T09:25:51.064Z,48.10
2018-06-22T09:28:20.112Z,46.48
2018-06-22T09:30:48.184Z,47.72
2018-06-22T09:33:16.429Z,49.02
2018-06-22T09:35:44.503Z,46.93
2018-06-22T09:38:12.590Z,46.61
2018-06-22T09:40:41.343Z,45.82
2018-06-22T09:43:09.561Z,47.56
2018-06-22T09:45:37.799Z,46.43
2018-06-22T09:48:06.072Z,45.08
2018-06-22T09:50:34.214Z,43.95
2018-06-22T09:53:02.343Z,44.99
2018-06-22T09:55:30.388Z,46.88
2018-06-22T09:57:58.464Z,44.62
2018-06-22T10:00:26.549Z,44.71
2018-06-22T10:02:54.604Z,44.30
2018-06-22T10:05:22.767Z,43.80
2018-06-22T10:07:52.356Z,45.79
2018-06-22T10:10:20.430Z,47.13
2018-06-22T10:12:49.183Z,46.54
2018-06-22T10:15:17.326Z,47.95
2018-06-22T10:17:45.435Z,46.32
2018-06-22T10:20:13.949Z,46.79
2018-06-22T10:22:42.097Z,44.88
2018-06-22T10:25:10.194Z,44.98
2018-06-22T10:27:38.679Z,43.34
2018-06-22T10:30:06.804Z,44.82
2018-06-22T10:32:34.891Z,42.88
2018-06-22T10:35:03.016Z,42.91
2018-06-22T10:37:31.084Z,43.93
2018-06-22T10:39:59.196Z,44.09
2018-06-22T10:42:27.292Z,45.10
2018-06-22T10:44:55.383Z,45.32
2018-06-22T10:47:24.657Z,44.55
2018-06-22T10:49:53.648Z,43.12
2018-06-22T10:52:21.709Z,42.75
2018-06-22T10:54:49.799Z,44.84
2018-06-22T10:57:17.883Z,45.01
2018-06-22T10:59:46.038Z,44.57
2018-06-22T11:02:14.360Z,45.49
2018-06-22T11:04:42.440Z,45.47
2018-06-22T11:07:10.516Z,44.76
2018-06-22T11:09:38.660Z,45.87
2018-06-22T11:12:06.772Z,45.91
2018-06-22T11:14:35.124Z,45.98
2018-06-22T11:17:03.405Z,48.22
2018-06-22T11:19:31.396Z,47.52
2018-06-22T11:21:59.760Z,44.37
2018-06-22T11:24:28.374Z,45.44
2018-06-22T11:26:56.416Z,44.27
2018-06-22T11:29:25.526Z,44.67
2018-06-22T11:31:53.579Z,44.70
2018-06-22T11:34:21.755Z,42.09
2018-06-22T11:36:49.838Z,44.93
2018-06-22T11:39:17.923Z,44.04
2018-06-22T11:41:46.003Z,44.08
2018-06-22T11:44:14.091Z,45.19
2018-06-22T11:46:42.803Z,43.16
2018-06-22T11:49:10.902Z,43.41
2018-06-22T11:51:39.001Z,43.13
2018-06-22T11:54:07.101Z,42.04
2018-06-22T11:56:35.192Z,42.65
2018-06-22T11:59:03.562Z,41.29
2018-06-22T12:01:31.600Z,42.44
2018-06-22T12:03:59.687Z,42.95
2018-06-22T12:06:27.769Z,42.60
2018-06-22T12:08:55.845Z,44.71
2018-06-22T12:11:23.941Z,44.07
2018-06-22T12:13:52.144Z,44.16
2018-06-22T12:16:20.255Z,42.54
2018-06-22T12:18:48.340Z,43.43
2018-06-22T12:21:16.413Z,44.02
2018-06-22T12:23:44.487Z,42.74
2018-06-22T12:26:13.063Z,43.96
2018-06-22T12:28:41.251Z,43.33
2018-06-22T12:31:09.448Z,42.91
2018-06-22T12:33:37.530Z,41.73
2018-06-22T12:36:06.324Z,43.29
2018-06-22T12:38:34.535Z,41.90
2018-06-22T12:41:02.653Z,43.55
2018-06-22T12:43:30.824Z,42.10
2018-06-22T12:45:59.205Z,43.29
2018-06-22T12:48:27.287Z,42.71
2018-06-22T12:50:55.384Z,43.69
2018-06-22T12:53:23.452Z,42.48
2018-06-22T12:55:51.540Z,43.09
2018-06-22T12:58:19.603Z,42.78
2018-06-22T13:00:48.370Z,43.23
2018-06-22T13:03:16.564Z,42.87
2018-06-22T13:05:44.833Z,41.80
2018-06-22T13:08:13.015Z,41.92
2018-06-22T13:10:41.108Z,42.02
2018-06-22T13:13:09.235Z,41.15
2018-06-22T13:15:37.432Z,42.88
2018-06-22T13:18:05.626Z,42.97
2018-06-22T13:20:33.708Z,43.06
2018-06-22T13:23:01.876Z,40.06
2018-06-22T13:25:30.742Z,40.51
2018-06-22T13:27:59.349Z,41.20
2018-06-22T13:30:27.455Z,41.98
2018-06-22T13:32:55.554Z,38.99
2018-06-22T13:35:23.655Z,39.51
2018-06-22T13:37:52.158Z,41.07
2018-06-22T13:40:20.492Z,41.12
2018-06-22T13:42:49.436Z,41.51
2018-06-22T13:45:18.036Z,40.95
2018-06-22T13:47:46.363Z,41.87
2018-06-22T13:50:14.478Z,41.15
2018-06-22T13:52:42.610Z,41.72
2018-06-22T13:55:10.889Z,41.85
2018-06-22T13:57:39.969Z,42.19
2018-06-22T14:00:08.176Z,41.58
2018-06-22T14:02:36.256Z,42.36
2018-06-22T14:05:09.600Z,44.29
2018-06-22T14:07:37.727Z,41.79
2018-06-22T14:10:06.465Z,45.03
2018-06-22T14:12:34.561Z,41.21
2018-06-22T14:15:02.888Z,39.77
2018-06-22T14:17:31.423Z,41.45
2018-06-22T14:19:59.628Z,41.34
2018-06-22T14:22:27.923Z,41.86
2018-06-22T14:24:56.208Z,40.32
2018-06-22T14:27:24.564Z,39.70
2018-06-22T14:29:52.631Z,39.98
2018-06-22T14:32:22.282Z,41.15
2018-06-22T14:34:50.420Z,38.72
2018-06-22T14:37:19.370Z,38.94
2018-06-22T14:39:47.460Z,40.32
2018-06-22T14:42:15.708Z,40.14
2018-06-22T14:44:43.905Z,40.67
2018-06-22T14:47:12.040Z,40.42
2018-06-22T14:49:40.057Z,37.37
2018-06-22T14:52:08.712Z,38.02
2018-06-22T14:54:42.085Z,39.20
2018-06-22T14:57:15.470Z,39.52
2018-06-22T14:59:48.984Z,39.64
2018-06-22T15:02:22.527Z,38.31
2018-06-22T15:04:56.004Z,39.60
2018-06-22T15:07:29.373Z,41.14
2018-06-22T15:09:57.493Z,39.86
2018-06-22T15:12:25.596Z,41.06
2018-06-22T15:14:54.024Z,42.00
2018-06-22T15:17:22.237Z,42.19
2018-06-22T15:19:50.479Z,42.12
2018-06-22T15:22:18.645Z,42.61
2018-06-22T15:24:46.753Z,42.01
2018-06-22T15:27:14.932Z,42.87
2018-06-22T15:29:43.072Z,42.77
2018-06-22T15:32:11.757Z,42.14
2018-06-22T15:34:45.300Z,41.54
2018-06-22T15:37:18.701Z,42.15
2018-06-22T15:39:52.236Z,41.88
2018-06-22T15:42:25.840Z,41.84
2018-06-22T15:44:59.267Z,41.15
2018-06-22T15:47:32.646Z,39.67
2018-06-22T15:50:06.441Z,42.68
2018-06-22T15:52:39.916Z,42.17
2018-06-22T15:55:11.908Z,42.48
2018-06-22T15:57:40.032Z,43.27
2018-06-22T16:00:09.856Z,43.51
2018-06-22T16:02:43.244Z,41.53
2018-06-22T16:05:11.639Z,42.41
2018-06-22T16:07:39.913Z,45.08
2018-06-22T16:10:10.239Z,47.13
2018-06-22T16:12:39.952Z,47.07
2018-06-22T16:15:14.327Z,45.72
2018-06-22T16:17:47.906Z,45.27
2018-06-22T16:20:21.463Z,46.63
2018-06-22T16:22:55.182Z,47.18
2018-06-22T16:25:28.659Z,47.63
2018-06-22T16:28:04.608Z,47.65
2018-06-22T16:30:32.834Z,47.62
2018-06-22T16:33:00.940Z,46.19
2018-06-22T16:35:30.081Z,45.92
2018-06-22T16:37:58.364Z,46.35
2018-06-22T16:40:27.449Z,47.75
2018-06-22T16:42:55.617Z,45.48
2018-06-22T16:45:23.870Z,44.51
2018-06-22T16:47:52.068Z,44.01
2018-06-22T16:50:20.607Z,41.55
2018-06-22T16:52:48.871Z,42.54
2018-06-22T16:55:17.079Z,42.76
2018-06-22T16:57:45.312Z,42.80
2018-06-22T17:00:13.691Z,43.04
2018-06-22T17:02:42.481Z,42.75
2018-06-22T17:05:10.666Z,42.89
2018-06-22T17:07:44.248Z,43.28
2018-06-22T17:10:18.183Z,43.01
2018-06-22T17:12:51.601Z,43.41
2018-06-22T17:15:25.107Z,44.27
2018-06-22T17:17:58.536Z,43.68
2018-06-22T17:20:26.645Z,44.14
2018-06-22T17:22:54.703Z,43.96
2018-06-22T17:25:22.980Z,43.19
2018-06-22T17:27:51.867Z,41.55
2018-06-22T17:30:19.982Z,39.16
2018-06-22T17:32:48.829Z,39.55
2018-06-22T17:35:17.085Z,39.59
2018-06-22T17:37:45.236Z,41.14
2018-06-22T17:40:13.411Z,39.48
2018-06-22T17:42:41.503Z,38.51
2018-06-22T17:45:09.778Z,40.01
2018-06-22T17:47:39.184Z,38.46
2018-06-22T17:50:13.048Z,40.92
2018-06-22T17:52:41.814Z,41.58
2018-06-22T17:55:10.041Z,42.87
2018-06-22T17:57:38.117Z,44.20
2018-06-22T18:00:11.660Z,43.98
2018-06-22T18:02:45.089Z,44.67
2018-06-22T18:05:18.628Z,44.55
2018-06-22T18:07:48.352Z,44.71
2018-06-22T18:10:21.983Z,45.05
2018-06-22T18:12:55.770Z,44.63
2018-06-22T18:15:23.799Z,44.53
2018-06-22T18:17:51.948Z,43.77
2018-06-22T18:20:20.250Z,44.33
2018-06-22T18:22:49.084Z,44.89
2018-06-22T18:25:17.113Z,46.55
2018-06-22T18:27:45.235Z,46.44
2018-06-22T18:30:15.500Z,47.38
2018-06-22T18:32:43.600Z,48.26
2018-06-22T18:35:13.838Z,47.64
2018-06-22T18:37:42.156Z,48.01
2018-06-22T18:40:11.015Z,48.33
2018-06-22T18:42:40.280Z,48.73
2018-06-22T18:45:10.211Z,49.01
2018-06-22T18:47:39.444Z,49.49
2018-06-22T18:50:07.711Z,49.67
2018-06-22T18:52:41.186Z,48.96
2018-06-22T18:55:15.048Z,49.64
2018-06-22T18:57:48.411Z,49.08
2018-06-22T19:00:21.935Z,48.69
2018-06-22T19:02:55.808Z,49.13
2018-06-22T19:05:23.920Z,49.37
2018-06-22T19:07:52.147Z,49.86
2018-06-22T19:10:20.252Z,50.32
2018-06-22T19:12:48.311Z,50.53
2018-06-22T19:15:17.375Z,50.92
2018-06-22T19:17:45.563Z,51.09
2018-06-22T19:20:13.671Z,52.14
2018-06-22T19:22:41.776Z,54.01
2018-06-22T19:25:10.772Z,52.90
2018-06-22T19:27:39.889Z,54.48
2018-06-22T19:30:08.675Z,53.34
2018-06-22T19:32:36.780Z,55.80
2018-06-22T19:35:11.100Z,54.66
2018-06-22T19:37:39.385Z,55.94
2018-06-22T19:40:07.520Z,55.68
2018-06-22T19:42:35.620Z,56.47
2018-06-22T19:45:09.103Z,55.63
2018-06-22T19:47:42.524Z,55.42
2018-06-22T20:09:41.536Z,55.69
2018-06-22T20:12:09.780Z,61.97
2018-06-22T20:14:37.868Z,63.56
2018-06-22T20:17:06.845Z,61.98
2018-06-22T20:19:34.952Z,64.61
2018-06-22T20:22:03.053Z,63.36
2018-06-22T20:24:36.424Z,63.54
2018-06-22T20:27:04.512Z,63.53
2018-06-22T20:29:32.598Z,64.70
2018-06-22T20:32:00.675Z,63.99
2018-06-22T20:34:35.214Z,65.06
2018-06-22T20:37:08.528Z,67.83
2018-06-22T20:39:42.277Z,65.79
2018-06-22T20:42:15.880Z,65.61
2018-06-22T20:44:49.378Z,66.61
2018-06-22T20:47:22.716Z,67.22
2018-06-22T20:49:56.111Z,67.80
2018-06-22T20:52:24.211Z,67.36
2018-06-22T20:54:52.535Z,67.39
2018-06-22T20:57:21.475Z,67.67
2018-06-22T20:59:49.711Z,69.30
2018-06-22T21:02:18.279Z,69.17
2018-06-22T21:04:46.628Z,69.43
2018-06-22T21:07:14.767Z,69.18
2018-06-22T21:09:42.948Z,69.06
2018-06-22T21:12:11.063Z,69.29
2018-06-22T21:14:39.360Z,69.69
2018-06-22T21:17:07.492Z,70.42
2018-06-22T21:19:35.625Z,69.52
2018-06-22T21:22:10.832Z,70.21
2018-06-22T21:24:40.283Z,70.91
2018-06-22T21:27:13.656Z,70.98
2018-06-22T21:29:47.296Z,71.41
2018-06-22T21:32:21.061Z,72.50
2018-06-22T21:34:55.832Z,71.31
2018-06-22T21:37:29.511Z,72.10
2018-06-22T21:39:57.731Z,73.01
2018-06-22T21:42:25.924Z,73.44
2018-06-22T21:44:54.096Z,74.24
2018-06-22T21:47:22.435Z,73.86
2018-06-22T21:49:51.539Z,74.29
2018-06-22T21:52:19.644Z,74.63
2018-06-22T21:54:48.252Z,75.30
2018-06-22T21:57:16.608Z,75.90
2018-06-22T22:02:38.646Z,76.21
2018-06-22T22:05:06.740Z,76.67
2018-06-22T22:07:34.918Z,77.41
2018-06-22T22:10:04.086Z,77.28
2018-06-22T22:12:33.483Z,77.38
2018-06-22T22:15:01.578Z,76.73
2018-06-22T22:17:31.702Z,77.15
2018-06-22T22:19:59.792Z,76.63
2018-06-22T22:22:27.984Z,78.07
2018-06-22T22:24:56.203Z,77.52
2018-06-22T22:27:24.344Z,76.57
2018-06-22T22:29:53.448Z,76.68
2018-06-22T22:32:21.552Z,77.25
2018-06-22T22:34:49.659Z,77.31
2018-06-22T22:37:18.127Z,78.29
2018-06-22T22:39:46.436Z,77.97
2018-06-22T22:42:14.528Z,78.95
2018-06-22T22:44:42.635Z,78.66
2018-06-22T22:47:11.749Z,78.67
2018-06-22T22:49:40.409Z,79.22
2018-06-22T22:52:08.505Z,80.46
2018-06-22T22:54:36.696Z,80.27
2018-06-22T22:57:06.163Z,79.80
2018-06-22T22:59:34.298Z,79.84
2018-06-22T23:02:02.441Z,79.61
2018-06-22T23:04:30.672Z,80.35
2018-06-22T23:06:59.111Z,80.18
2018-06-22T23:09:27.367Z,80.22
2018-06-22T23:11:55.548Z,80.85
2018-06-22T23:14:23.700Z,80.52
2018-06-22T23:16:51.865Z,79.96
2018-06-22T23:19:19.958Z,80.79
2018-06-22T23:21:48.284Z,81.06
2018-06-22T23:24:16.597Z,80.74
2018-06-22T23:26:44.862Z,80.43
2018-06-22T23:29:13.151Z,80.12
2018-06-22T23:31:41.581Z,81.08
2018-06-22T23:34:09.897Z,80.93
2018-06-22T23:36:38.243Z,81.00
2018-06-22T23:39:08.381Z,81.46
2018-06-22T23:41:36.523Z,81.24
2018-06-22T23:44:04.655Z,81.56
2018-06-22T23:46:32.993Z,82.66
2018-06-22T23:49:01.058Z,82.25
2018-06-22T23:51:29.137Z,82.52
2018-06-22T23:53:57.295Z,82.77
2018-06-22T23:56:25.456Z,82.49
2018-06-22T23:58:53.532Z,81.99
